sensor_id;sensor_type;location;lat;lon;timestamp;pressure;altitude;pressure_sealevel;temperature;humidity
23616;BME280;11985;49.404;7.734;2022-11-15T00:04:09;96953.56;;;9.25;100.00
23616;BME280;11985;49.404;7.734;2022-11-15T00:09:12;96951.16;;;9.17;100.00
23616;BME280;11985;49.404;7.734;2022-11-15T00:14:14;96944.69;;;9.19;100.00
23616;BME280;11985;49.404;7.734;2022-11-15T00:19:18;96941.03;;;9.20;100.00
23616;BME280;11985;49.404;7.734;2022-11-15T00:24:21;96936.56;;;9.21;100.00
23616;BME280;11985;49.404;7.734;2022-11-15T00:29:22;96937.41;;;9.28;100.00
23616;BME280;11985;49.404;7.734;2022-11-15T00:34:24;96938.56;;;9.32;100.00
23616;BME280;11985;49.404;7.734;2022-11-15T00:39:27;96935.34;;;9.37;100.00
23616;BME280;11985;49.404;7.734;2022-11-15T00:44:29;96925.81;;;9.42;100.00
23616;BME280;11985;49.404;7.734;2022-11-15T00:49:30;96934.91;;;9.46;100.00
23616;BME280;11985;49.404;7.734;2022-11-15T00:54:33;96925.22;;;9.47;100.00
23616;BME280;11985;49.404;7.734;2022-11-15T00:59:34;96930.88;;;9.50;100.00
23616;BME280;11985;49.404;7.734;2022-11-15T01:04:36;96923.53;;;9.59;100.00
23616;BME280;11985;49.404;7.734;2022-11-15T01:09:39;96917.09;;;9.62;100.00
23616;BME280;11985;49.404;7.734;2022-11-15T01:14:40;96918.47;;;9.64;100.00
23616;BME280;11985;49.404;7.734;2022-11-15T01:19:42;96909.38;;;9.67;100.00
23616;BME280;11985;49.404;7.734;2022-11-15T01:24:45;96912.19;;;9.72;100.00
23616;BME280;11985;49.404;7.734;2022-11-15T01:29:46;96915.03;;;9.64;100.00
23616;BME280;11985;49.404;7.734;2022-11-15T01:34:48;96905.31;;;9.64;100.00
23616;BME280;11985;49.404;7.734;2022-11-15T01:39:51;96904.53;;;9.64;100.00
23616;BME280;11985;49.404;7.734;2022-11-15T01:44:52;96902.06;;;9.69;100.00
23616;BME280;11985;49.404;7.734;2022-11-15T01:49:58;96892.19;;;9.64;100.00
23616;BME280;11985;49.404;7.734;2022-11-15T01:55:06;96889.59;;;9.58;100.00
23616;BME280;11985;49.404;7.734;2022-11-15T02:00:10;96882.94;;;9.48;100.00
23616;BME280;11985;49.404;7.734;2022-11-15T02:05:12;96878.50;;;9.42;100.00
23616;BME280;11985;49.404;7.734;2022-11-15T02:10:18;96865.38;;;9.42;100.00
23616;BME280;11985;49.404;7.734;2022-11-15T02:15:21;96865.81;;;9.39;100.00
23616;BME280;11985;49.404;7.734;2022-11-15T02:20:40;96860.91;;;9.43;100.00
23616;BME280;11985;49.404;7.734;2022-11-15T02:25:54;96853.63;;;9.51;100.00
23616;BME280;11985;49.404;7.734;2022-11-15T02:31:03;96835.97;;;9.59;100.00
23616;BME280;11985;49.404;7.734;2022-11-15T02:36:10;96837.00;;;9.58;100.00
23616;BME280;11985;49.404;7.734;2022-11-15T02:41:15;96837.75;;;9.65;100.00
23616;BME280;11985;49.404;7.734;2022-11-15T02:46:22;96833.13;;;9.67;100.00
23616;BME280;11985;49.404;7.734;2022-11-15T02:51:47;96828.28;;;9.64;100.00
23616;BME280;11985;49.404;7.734;2022-11-15T02:56:53;96825.63;;;9.64;100.00
23616;BME280;11985;49.404;7.734;2022-11-15T03:02:08;96831.28;;;9.67;100.00
23616;BME280;11985;49.404;7.734;2022-11-15T03:07:18;96833.09;;;9.73;100.00
23616;BME280;11985;49.404;7.734;2022-11-15T03:12:28;96829.22;;;9.76;100.00
23616;BME280;11985;49.404;7.734;2022-11-15T03:17:36;96839.72;;;9.76;100.00
23616;BME280;11985;49.404;7.734;2022-11-15T03:22:42;96830.63;;;9.78;100.00
23616;BME280;11985;49.404;7.734;2022-11-15T03:27:48;96821.50;;;9.81;100.00
23616;BME280;11985;49.404;7.734;2022-11-15T03:32:55;96827.78;;;9.80;100.00
23616;BME280;11985;49.404;7.734;2022-11-15T03:38:01;96827.38;;;9.83;100.00
23616;BME280;11985;49.404;7.734;2022-11-15T03:43:10;96820.47;;;9.82;100.00
23616;BME280;11985;49.404;7.734;2022-11-15T03:48:21;96821.91;;;9.85;100.00
23616;BME280;11985;49.404;7.734;2022-11-15T03:53:24;96826.13;;;9.86;100.00
23616;BME280;11985;49.404;7.734;2022-11-15T03:58:25;96820.66;;;9.87;100.00
23616;BME280;11985;49.404;7.734;2022-11-15T04:03:28;96815.56;;;9.92;100.00
23616;BME280;11985;49.404;7.734;2022-11-15T04:08:30;96813.38;;;9.89;100.00
23616;BME280;11985;49.404;7.734;2022-11-15T04:13:31;96811.38;;;9.85;100.00
23616;BME280;11985;49.404;7.734;2022-11-15T04:18:34;96798.63;;;9.82;100.00
23616;BME280;11985;49.404;7.734;2022-11-15T04:23:36;96810.63;;;9.77;100.00
23616;BME280;11985;49.404;7.734;2022-11-15T04:28:55;96797.66;;;9.76;100.00
23616;BME280;11985;49.404;7.734;2022-11-15T04:34:15;96782.13;;;9.68;100.00
23616;BME280;11985;49.404;7.734;2022-11-15T04:39:17;96776.72;;;9.63;100.00
23616;BME280;11985;49.404;7.734;2022-11-15T04:44:18;96780.81;;;9.52;100.00
23616;BME280;11985;49.404;7.734;2022-11-15T04:49:21;96789.75;;;9.38;100.00
23616;BME280;11985;49.404;7.734;2022-11-15T04:54:23;96794.41;;;9.42;100.00
23616;BME280;11985;49.404;7.734;2022-11-15T04:59:24;96788.88;;;9.57;100.00
23616;BME280;11985;49.404;7.734;2022-11-15T05:04:27;96780.91;;;9.70;100.00
23616;BME280;11985;49.404;7.734;2022-11-15T05:09:29;96779.50;;;9.68;100.00
23616;BME280;11985;49.404;7.734;2022-11-15T05:14:30;96774.75;;;9.51;100.00
23616;BME280;11985;49.404;7.734;2022-11-15T05:19:34;96776.44;;;9.33;100.00
23616;BME280;11985;49.404;7.734;2022-11-15T05:24:35;96776.72;;;9.18;100.00
23616;BME280;11985;49.404;7.734;2022-11-15T05:29:37;96778.16;;;9.14;100.00
23616;BME280;11985;49.404;7.734;2022-11-15T05:34:40;96772.16;;;9.00;100.00
23616;BME280;11985;49.404;7.734;2022-11-15T05:39:41;96761.88;;;8.92;100.00
23616;BME280;11985;49.404;7.734;2022-11-15T05:44:46;96765.28;;;8.92;100.00
23616;BME280;11985;49.404;7.734;2022-11-15T05:49:51;96762.44;;;9.01;100.00
23616;BME280;11985;49.404;7.734;2022-11-15T05:54:54;96768.81;;;9.24;100.00
23616;BME280;11985;49.404;7.734;2022-11-15T05:59:56;96771.38;;;9.38;100.00
23616;BME280;11985;49.404;7.734;2022-11-15T06:05:00;96777.59;;;9.43;100.00
23616;BME280;11985;49.404;7.734;2022-11-15T06:10:02;96777.69;;;9.30;100.00
23616;BME280;11985;49.404;7.734;2022-11-15T06:15:13;96772.31;;;9.12;100.00
23616;BME280;11985;49.404;7.734;2022-11-15T06:20:16;96766.72;;;8.95;100.00
23616;BME280;11985;49.404;7.734;2022-11-15T06:25:17;96766.13;;;8.86;100.00
23616;BME280;11985;49.404;7.734;2022-11-15T06:30:19;96767.13;;;8.92;100.00
23616;BME280;11985;49.404;7.734;2022-11-15T06:35:22;96772.78;;;8.95;100.00
23616;BME280;11985;49.404;7.734;2022-11-15T06:40:23;96778.81;;;8.96;100.00
23616;BME280;11985;49.404;7.734;2022-11-15T06:45:25;96775.41;;;8.95;100.00
23616;BME280;11985;49.404;7.734;2022-11-15T06:50:28;96782.66;;;8.93;100.00
23616;BME280;11985;49.404;7.734;2022-11-15T06:55:30;96789.75;;;8.86;100.00
23616;BME280;11985;49.404;7.734;2022-11-15T07:00:31;96784.94;;;8.83;100.00
23616;BME280;11985;49.404;7.734;2022-11-15T07:05:35;96787.56;;;8.83;100.00
23616;BME280;11985;49.404;7.734;2022-11-15T07:10:37;96778.25;;;8.94;100.00
23616;BME280;11985;49.404;7.734;2022-11-15T07:15:38;96784.63;;;9.05;100.00
23616;BME280;11985;49.404;7.734;2022-11-15T07:20:42;96784.63;;;9.11;100.00
23616;BME280;11985;49.404;7.734;2022-11-15T07:25:43;96786.22;;;9.19;100.00
23616;BME280;11985;49.404;7.734;2022-11-15T07:30:45;96789.78;;;9.31;100.00
23616;BME280;11985;49.404;7.734;2022-11-15T07:35:49;96783.69;;;9.37;100.00
23616;BME280;11985;49.404;7.734;2022-11-15T07:40:56;96786.16;;;9.39;100.00
23616;BME280;11985;49.404;7.734;2022-11-15T07:45:59;96782.09;;;9.36;100.00
23616;BME280;11985;49.404;7.734;2022-11-15T07:51:07;96777.09;;;9.28;100.00
23616;BME280;11985;49.404;7.734;2022-11-15T07:56:09;96775.69;;;9.25;100.00
23616;BME280;11985;49.404;7.734;2022-11-15T08:01:11;96784.94;;;9.35;100.00
23616;BME280;11985;49.404;7.734;2022-11-15T08:06:14;96780.03;;;9.45;100.00
23616;BME280;11985;49.404;7.734;2022-11-15T08:11:16;96776.31;;;9.59;100.00
23616;BME280;11985;49.404;7.734;2022-11-15T08:16:17;96777.47;;;9.70;100.00
23616;BME280;11985;49.404;7.734;2022-11-15T08:21:21;96781.47;;;9.79;100.00
23616;BME280;11985;49.404;7.734;2022-11-15T08:26:22;96772.03;;;9.96;100.00
23616;BME280;11985;49.404;7.734;2022-11-15T08:31:25;96775.88;;;10.25;100.00
23616;BME280;11985;49.404;7.734;2022-11-15T08:36:28;96763.19;;;10.41;100.00
23616;BME280;11985;49.404;7.734;2022-11-15T08:41:32;96766.50;;;10.54;100.00
23616;BME280;11985;49.404;7.734;2022-11-15T08:46:35;96758.25;;;10.51;100.00
23616;BME280;11985;49.404;7.734;2022-11-15T08:51:38;96757.16;;;10.58;100.00
23616;BME280;11985;49.404;7.734;2022-11-15T08:56:40;96751.72;;;10.53;100.00
23616;BME280;11985;49.404;7.734;2022-11-15T09:01:42;96744.44;;;10.55;100.00
23616;BME280;11985;49.404;7.734;2022-11-15T09:06:44;96741.81;;;10.55;100.00
23616;BME280;11985;49.404;7.734;2022-11-15T09:11:46;96743.25;;;10.70;100.00
23616;BME280;11985;49.404;7.734;2022-11-15T09:16:49;96735.25;;;10.83;100.00
23616;BME280;11985;49.404;7.734;2022-11-15T09:21:52;96736.84;;;10.84;100.00
23616;BME280;11985;49.404;7.734;2022-11-15T09:26:53;96727.69;;;10.87;100.00
23616;BME280;11985;49.404;7.734;2022-11-15T09:31:55;96734.13;;;10.91;100.00
23616;BME280;11985;49.404;7.734;2022-11-15T09:36:58;96742.59;;;11.11;100.00
23616;BME280;11985;49.404;7.734;2022-11-15T09:42:22;96733.88;;;11.29;100.00
23616;BME280;11985;49.404;7.734;2022-11-15T09:47:45;96728.13;;;11.32;100.00
23616;BME280;11985;49.404;7.734;2022-11-15T09:52:52;96731.50;;;11.21;100.00
23616;BME280;11985;49.404;7.734;2022-11-15T09:57:57;96737.97;;;11.25;100.00
23616;BME280;11985;49.404;7.734;2022-11-15T10:03:09;96731.78;;;11.31;100.00
23616;BME280;11985;49.404;7.734;2022-11-15T10:08:28;96715.69;;;11.39;100.00
23616;BME280;11985;49.404;7.734;2022-11-15T10:13:33;96710.41;;;11.39;100.00
23616;BME280;11985;49.404;7.734;2022-11-15T10:18:43;96698.63;;;11.53;100.00
23616;BME280;11985;49.404;7.734;2022-11-15T10:23:53;96681.47;;;11.62;100.00
23616;BME280;11985;49.404;7.734;2022-11-15T10:28:54;96673.28;;;11.94;100.00
23616;BME280;11985;49.404;7.734;2022-11-15T10:39:20;96657.53;;;12.46;96.00
23616;BME280;11985;49.404;7.734;2022-11-15T10:44:24;96639.97;;;12.40;93.67
23616;BME280;11985;49.404;7.734;2022-11-15T10:49:27;96631.16;;;12.34;93.42
23616;BME280;11985;49.404;7.734;2022-11-15T10:54:34;96616.78;;;12.30;92.95
23616;BME280;11985;49.404;7.734;2022-11-15T10:59:37;96621.84;;;12.32;93.39
23616;BME280;11985;49.404;7.734;2022-11-15T11:04:49;96618.25;;;12.38;93.01
23616;BME280;11985;49.404;7.734;2022-11-15T11:09:59;96615.84;;;12.48;92.66
23616;BME280;11985;49.404;7.734;2022-11-15T11:15:09;96610.44;;;12.43;92.25
23616;BME280;11985;49.404;7.734;2022-11-15T11:20:18;96610.44;;;12.55;92.95
23616;BME280;11985;49.404;7.734;2022-11-15T11:25:30;96609.56;;;12.78;92.69
23616;BME280;11985;49.404;7.734;2022-11-15T11:30:43;96606.38;;;12.92;90.88
23616;BME280;11985;49.404;7.734;2022-11-15T11:35:57;96589.91;;;13.02;89.14
23616;BME280;11985;49.404;7.734;2022-11-15T11:41:10;96587.19;;;13.26;88.72
23616;BME280;11985;49.404;7.734;2022-11-15T11:46:29;96577.44;;;13.14;86.54
23616;BME280;11985;49.404;7.734;2022-11-15T11:51:41;96583.97;;;12.95;86.56
23616;BME280;11985;49.404;7.734;2022-11-15T11:56:45;96570.06;;;13.00;86.55
23616;BME280;11985;49.404;7.734;2022-11-15T12:01:47;96565.56;;;13.00;85.30
23616;BME280;11985;49.404;7.734;2022-11-15T12:06:50;96562.75;;;12.90;85.24
23616;BME280;11985;49.404;7.734;2022-11-15T12:11:58;96550.38;;;12.79;85.20
23616;BME280;11985;49.404;7.734;2022-11-15T12:17:02;96545.00;;;12.74;85.15
23616;BME280;11985;49.404;7.734;2022-11-15T12:22:08;96539.16;;;12.72;85.04
23616;BME280;11985;49.404;7.734;2022-11-15T12:27:17;96516.53;;;12.92;85.43
23616;BME280;11985;49.404;7.734;2022-11-15T12:32:26;96509.09;;;13.06;84.38
23616;BME280;11985;49.404;7.734;2022-11-15T12:37:47;96496.72;;;13.24;84.08
23616;BME280;11985;49.404;7.734;2022-11-15T12:59:51;96469.44;;;13.79;81.62
23616;BME280;11985;49.404;7.734;2022-11-15T13:10:40;96457.28;;;13.78;79.49
23616;BME280;11985;49.404;7.734;2022-11-15T13:15:54;96450.03;;;13.51;80.46
23616;BME280;11985;49.404;7.734;2022-11-15T13:20:57;96452.81;;;13.23;81.32
23616;BME280;11985;49.404;7.734;2022-11-15T13:26:12;96444.16;;;13.10;82.91
23616;BME280;11985;49.404;7.734;2022-11-15T13:31:24;96427.53;;;13.15;82.93
23616;BME280;11985;49.404;7.734;2022-11-15T13:36:28;96409.69;;;13.05;82.51
23616;BME280;11985;49.404;7.734;2022-11-15T13:41:32;96414.81;;;12.95;83.23
23616;BME280;11985;49.404;7.734;2022-11-15T13:46:36;96405.31;;;12.94;83.78
23616;BME280;11985;49.404;7.734;2022-11-15T13:51:42;96391.59;;;12.97;84.20
23616;BME280;11985;49.404;7.734;2022-11-15T13:56:47;96381.97;;;12.91;83.81
23616;BME280;11985;49.404;7.734;2022-11-15T14:01:51;96362.94;;;12.89;84.43
23616;BME280;11985;49.404;7.734;2022-11-15T14:06:56;96372.84;;;12.99;84.76
23616;BME280;11985;49.404;7.734;2022-11-15T14:11:59;96375.41;;;13.10;83.99
23616;BME280;11985;49.404;7.734;2022-11-15T14:17:03;96358.97;;;13.08;83.45
23616;BME280;11985;49.404;7.734;2022-11-15T14:22:12;96353.69;;;13.08;83.56
23616;BME280;11985;49.404;7.734;2022-11-15T14:27:23;96341.13;;;12.99;83.36
23616;BME280;11985;49.404;7.734;2022-11-15T14:32:28;96332.31;;;12.93;84.36
23616;BME280;11985;49.404;7.734;2022-11-15T14:37:31;96325.13;;;12.88;84.19
23616;BME280;11985;49.404;7.734;2022-11-15T14:42:34;96324.91;;;12.73;84.48
23616;BME280;11985;49.404;7.734;2022-11-15T14:47:37;96312.19;;;12.53;85.05
23616;BME280;11985;49.404;7.734;2022-11-15T14:52:39;96309.97;;;12.45;85.89
23616;BME280;11985;49.404;7.734;2022-11-15T14:57:41;96308.84;;;12.41;85.73
23616;BME280;11985;49.404;7.734;2022-11-15T15:02:45;96295.47;;;12.31;85.40
23616;BME280;11985;49.404;7.734;2022-11-15T15:07:48;96293.00;;;12.24;85.96
23616;BME280;11985;49.404;7.734;2022-11-15T15:12:50;96291.22;;;12.30;85.98
23616;BME280;11985;49.404;7.734;2022-11-15T15:17:53;96280.84;;;12.40;85.91
23616;BME280;11985;49.404;7.734;2022-11-15T15:22:55;96283.06;;;12.31;85.74
23616;BME280;11985;49.404;7.734;2022-11-15T15:27:56;96278.50;;;12.27;85.65
23616;BME280;11985;49.404;7.734;2022-11-15T15:32:59;96266.75;;;12.18;85.67
23616;BME280;11985;49.404;7.734;2022-11-15T15:38:01;96258.25;;;12.15;85.51
23616;BME280;11985;49.404;7.734;2022-11-15T15:43:03;96269.13;;;12.02;85.63
23616;BME280;11985;49.404;7.734;2022-11-15T15:48:10;96259.53;;;11.96;85.75
23616;BME280;11985;49.404;7.734;2022-11-15T15:53:14;96256.19;;;11.84;86.41
23616;BME280;11985;49.404;7.734;2022-11-15T15:58:16;96259.66;;;11.73;86.62
23616;BME280;11985;49.404;7.734;2022-11-15T16:03:19;96248.41;;;11.66;86.44
23616;BME280;11985;49.404;7.734;2022-11-15T16:08:21;96229.81;;;11.55;86.76
23616;BME280;11985;49.404;7.734;2022-11-15T16:13:23;96223.31;;;11.46;86.95
23616;BME280;11985;49.404;7.734;2022-11-15T16:18:26;96215.09;;;11.31;87.54
23616;BME280;11985;49.404;7.734;2022-11-15T16:23:28;96209.19;;;11.24;88.22
23616;BME280;11985;49.404;7.734;2022-11-15T16:28:31;96211.44;;;11.32;88.50
23616;BME280;11985;49.404;7.734;2022-11-15T16:33:34;96211.31;;;11.39;88.47
23616;BME280;11985;49.404;7.734;2022-11-15T16:38:36;96211.53;;;11.37;88.96
23616;BME280;11985;49.404;7.734;2022-11-15T16:43:39;96202.50;;;11.33;89.74
23616;BME280;11985;49.404;7.734;2022-11-15T16:48:42;96209.03;;;11.30;90.09
23616;BME280;11985;49.404;7.734;2022-11-15T16:53:44;96203.91;;;11.24;90.27
23616;BME280;11985;49.404;7.734;2022-11-15T16:58:45;96200.03;;;11.15;91.42
23616;BME280;11985;49.404;7.734;2022-11-15T17:03:48;96199.72;;;11.11;91.69
23616;BME280;11985;49.404;7.734;2022-11-15T17:08:51;96196.19;;;11.05;92.08
23616;BME280;11985;49.404;7.734;2022-11-15T17:13:56;96193.56;;;11.05;91.99
23616;BME280;11985;49.404;7.734;2022-11-15T17:18:59;96190.13;;;11.05;92.89
23616;BME280;11985;49.404;7.734;2022-11-15T17:24:01;96199.84;;;11.04;93.23
23616;BME280;11985;49.404;7.734;2022-11-15T17:29:03;96187.91;;;11.14;93.93
23616;BME280;11985;49.404;7.734;2022-11-15T17:34:08;96180.66;;;11.21;93.59
23616;BME280;11985;49.404;7.734;2022-11-15T17:39:09;96177.06;;;11.27;93.56
23616;BME280;11985;49.404;7.734;2022-11-15T17:44:11;96175.03;;;11.29;93.13
23616;BME280;11985;49.404;7.734;2022-11-15T17:49:14;96163.34;;;11.25;92.81
23616;BME280;11985;49.404;7.734;2022-11-15T17:54:16;96170.59;;;11.18;93.64
23616;BME280;11985;49.404;7.734;2022-11-15T17:59:18;96165.47;;;11.11;93.90
23616;BME280;11985;49.404;7.734;2022-11-15T18:04:24;96163.78;;;11.05;94.37
23616;BME280;11985;49.404;7.734;2022-11-15T18:09:27;96161.25;;;10.98;95.32
23616;BME280;11985;49.404;7.734;2022-11-15T18:14:29;96157.53;;;10.94;96.31
23616;BME280;11985;49.404;7.734;2022-11-15T18:19:32;96160.63;;;10.91;97.66
23616;BME280;11985;49.404;7.734;2022-11-15T18:24:34;96145.75;;;10.85;98.62
23616;BME280;11985;49.404;7.734;2022-11-15T18:29:37;96144.50;;;10.76;99.62
23616;BME280;11985;49.404;7.734;2022-11-15T18:34:40;96146.94;;;10.66;100.00
23616;BME280;11985;49.404;7.734;2022-11-15T18:39:42;96142.72;;;10.65;100.00
23616;BME280;11985;49.404;7.734;2022-11-15T18:44:43;96141.97;;;10.81;100.00
23616;BME280;11985;49.404;7.734;2022-11-15T18:49:46;96133.72;;;10.89;100.00
23616;BME280;11985;49.404;7.734;2022-11-15T18:54:48;96130.03;;;10.90;100.00
23616;BME280;11985;49.404;7.734;2022-11-15T18:59:49;96127.31;;;10.85;100.00
23616;BME280;11985;49.404;7.734;2022-11-15T19:04:53;96122.41;;;10.77;100.00
23616;BME280;11985;49.404;7.734;2022-11-15T19:09:54;96122.44;;;10.65;100.00
23616;BME280;11985;49.404;7.734;2022-11-15T19:14:56;96115.56;;;10.64;100.00
23616;BME280;11985;49.404;7.734;2022-11-15T19:19:59;96101.50;;;10.58;100.00
23616;BME280;11985;49.404;7.734;2022-11-15T19:25:00;96099.56;;;10.54;100.00
23616;BME280;11985;49.404;7.734;2022-11-15T19:30:04;96094.22;;;10.49;100.00
23616;BME280;11985;49.404;7.734;2022-11-15T19:35:08;96081.78;;;10.44;100.00
23616;BME280;11985;49.404;7.734;2022-11-15T19:40:10;96078.34;;;10.44;100.00
23616;BME280;11985;49.404;7.734;2022-11-15T19:45:11;96071.94;;;10.40;100.00
23616;BME280;11985;49.404;7.734;2022-11-15T19:50:15;96071.94;;;10.40;100.00
23616;BME280;11985;49.404;7.734;2022-11-15T19:55:16;96070.19;;;10.45;100.00
23616;BME280;11985;49.404;7.734;2022-11-15T20:00:18;96074.72;;;10.62;100.00
23616;BME280;11985;49.404;7.734;2022-11-15T20:05:21;96070.13;;;10.69;100.00
23616;BME280;11985;49.404;7.734;2022-11-15T20:10:23;96073.09;;;10.72;100.00
23616;BME280;11985;49.404;7.734;2022-11-15T20:15:25;96068.63;;;10.73;100.00
23616;BME280;11985;49.404;7.734;2022-11-15T20:20:28;96072.19;;;10.67;100.00
23616;BME280;11985;49.404;7.734;2022-11-15T20:25:29;96079.41;;;10.60;100.00
23616;BME280;11985;49.404;7.734;2022-11-15T20:30:32;96070.31;;;10.50;100.00
23616;BME280;11985;49.404;7.734;2022-11-15T20:35:35;96073.38;;;10.47;100.00
23616;BME280;11985;49.404;7.734;2022-11-15T20:40:37;96064.94;;;10.45;100.00
23616;BME280;11985;49.404;7.734;2022-11-15T20:45:41;96051.69;;;10.40;100.00
23616;BME280;11985;49.404;7.734;2022-11-15T20:50:45;96043.03;;;10.28;100.00
23616;BME280;11985;49.404;7.734;2022-11-15T20:55:48;96035.69;;;10.30;100.00
23616;BME280;11985;49.404;7.734;2022-11-15T21:00:54;96029.28;;;10.26;100.00
23616;BME280;11985;49.404;7.734;2022-11-15T21:05:57;96023.66;;;10.22;100.00
23616;BME280;11985;49.404;7.734;2022-11-15T21:10:58;96018.53;;;10.27;100.00
23616;BME280;11985;49.404;7.734;2022-11-15T21:16:18;96019.59;;;10.43;100.00
23616;BME280;11985;49.404;7.734;2022-11-15T21:21:21;96011.81;;;10.48;100.00
23616;BME280;11985;49.404;7.734;2022-11-15T21:26:22;96015.97;;;10.44;100.00
23616;BME280;11985;49.404;7.734;2022-11-15T21:31:24;96010.50;;;10.34;100.00
23616;BME280;11985;49.404;7.734;2022-11-15T21:36:27;96011.44;;;10.28;100.00
23616;BME280;11985;49.404;7.734;2022-11-15T21:41:28;96004.56;;;10.27;100.00
23616;BME280;11985;49.404;7.734;2022-11-15T21:46:31;96002.84;;;10.21;100.00
23616;BME280;11985;49.404;7.734;2022-11-15T21:51:34;95991.09;;;10.12;100.00
23616;BME280;11985;49.404;7.734;2022-11-15T21:56:35;95987.00;;;10.04;100.00
23616;BME280;11985;49.404;7.734;2022-11-15T22:01:37;95987.72;;;9.99;100.00
23616;BME280;11985;49.404;7.734;2022-11-15T22:06:58;95976.28;;;9.94;100.00
23616;BME280;11985;49.404;7.734;2022-11-15T22:11:59;95974.56;;;9.88;100.00
23616;BME280;11985;49.404;7.734;2022-11-15T22:17:01;95962.59;;;9.80;100.00
23616;BME280;11985;49.404;7.734;2022-11-15T22:22:04;95972.19;;;9.74;100.00
23616;BME280;11985;49.404;7.734;2022-11-15T22:27:05;95962.97;;;9.72;100.00
23616;BME280;11985;49.404;7.734;2022-11-15T22:32:07;95958.72;;;9.71;100.00
23616;BME280;11985;49.404;7.734;2022-11-15T22:37:10;95957.13;;;9.70;100.00
23616;BME280;11985;49.404;7.734;2022-11-15T22:42:12;95960.34;;;9.72;100.00
23616;BME280;11985;49.404;7.734;2022-11-15T22:47:13;95962.06;;;9.66;100.00
23616;BME280;11985;49.404;7.734;2022-11-15T22:52:16;95958.03;;;9.64;100.00
23616;BME280;11985;49.404;7.734;2022-11-15T22:57:18;95956.44;;;9.63;100.00
23616;BME280;11985;49.404;7.734;2022-11-15T23:02:20;95954.50;;;9.58;100.00
23616;BME280;11985;49.404;7.734;2022-11-15T23:07:23;95949.38;;;9.51;100.00
23616;BME280;11985;49.404;7.734;2022-11-15T23:12:25;95943.66;;;9.55;100.00
23616;BME280;11985;49.404;7.734;2022-11-15T23:17:45;95932.03;;;9.50;100.00
23616;BME280;11985;49.404;7.734;2022-11-15T23:22:47;95931.31;;;9.43;100.00
23616;BME280;11985;49.404;7.734;2022-11-15T23:27:49;95919.22;;;9.42;100.00
23616;BME280;11985;49.404;7.734;2022-11-15T23:32:51;95920.25;;;9.41;100.00
23616;BME280;11985;49.404;7.734;2022-11-15T23:38:11;95918.06;;;9.38;100.00
23616;BME280;11985;49.404;7.734;2022-11-15T23:43:13;95912.25;;;9.36;100.00
23616;BME280;11985;49.404;7.734;2022-11-15T23:48:15;95914.53;;;9.33;100.00
23616;BME280;11985;49.404;7.734;2022-11-15T23:53:18;95912.38;;;9.30;100.00
23616;BME280;11985;49.404;7.734;2022-11-15T23:58:21;95911.34;;;9.31;100.00
